Time;durP1;ratioP1;P1;durP2;ratioP2;P2;SDS_P1;SDS_P2;PMS_P1;PMS_P2;Temp;Humidity;BMP_temperature;BMP_pressure;BME280_temperature;BME280_humidity;BME280_pressure;Samples;Min_cycle;Max_cycle;Signal;HPM_P1;HPM_P2
2023/06/09 00:02:06;;;;;;;7.43;6.73;;;;;;;16.77;nan;99003.00;5072335;28;20188;-79
2023/06/09 00:04:35;;;;;;;7.47;6.70;;;;;;;16.80;nan;99000.56;5073537;28;20196;-79
2023/06/09 00:07:03;;;;;;;7.60;7.00;;;;;;;16.75;nan;98999.78;5064366;28;20201;-78
2023/06/09 00:09:30;;;;;;;7.03;6.53;;;;;;;16.69;nan;99005.22;5061515;28;20262;-80
2023/06/09 00:11:57;;;;;;;7.03;6.50;;;;;;;16.66;nan;98999.50;5053153;28;20261;-78
2023/06/09 00:14:24;;;;;;;6.83;6.33;;;;;;;16.62;nan;98998.44;5063401;28;20214;-77
2023/06/09 00:16:51;;;;;;;7.50;6.90;;;;;;;16.56;nan;98997.59;5058965;28;20261;-78
2023/06/09 00:19:18;;;;;;;7.13;6.57;;;;;;;16.56;nan;98992.19;5053072;28;20210;-78
2023/06/09 00:21:49;;;;;;;7.07;6.03;;;;;;;16.53;nan;98991.94;5052594;28;20191;-78
2023/06/09 00:24:20;;;;;;;7.40;6.70;;;;;;;16.47;nan;98984.94;5052214;28;20192;-78
2023/06/09 00:26:48;;;;;;;7.30;6.70;;;;;;;16.46;nan;98988.72;5061379;28;20195;-78
2023/06/09 00:29:16;;;;;;;7.57;6.87;;;;;;;16.46;nan;98991.44;5053284;28;20283;-78
2023/06/09 00:31:44;;;;;;;7.17;6.57;;;;;;;16.40;nan;98987.91;5051725;28;20191;-79
2023/06/09 00:34:11;;;;;;;6.97;6.43;;;;;;;16.33;nan;98987.38;5060010;28;20197;-78
2023/06/09 00:36:38;;;;;;;7.13;6.53;;;;;;;16.25;nan;98991.44;5061315;28;20189;-78
2023/06/09 00:39:05;;;;;;;6.83;6.20;;;;;;;16.20;nan;98983.34;5071774;28;20254;-79
2023/06/09 00:41:36;;;;;;;7.40;6.40;;;;;;;16.16;nan;98984.16;5062805;28;20244;-78
2023/06/09 00:44:04;;;;;;;8.03;7.37;;;;;;;16.14;nan;98983.63;5051647;28;20206;-78
2023/06/09 00:46:31;;;;;;;9.33;6.63;;;;;;;16.13;nan;98982.00;5069193;28;20191;-78
2023/06/09 00:48:57;;;;;;;7.13;6.53;;;;;;;16.05;nan;98982.56;5054098;28;20613;-78
2023/06/09 00:51:25;;;;;;;7.57;7.03;;;;;;;15.99;nan;98972.81;5059766;28;20190;-78
2023/06/09 00:53:52;;;;;;;7.43;6.83;;;;;;;15.93;nan;98961.19;5052370;28;20300;-78
2023/06/09 00:56:23;;;;;;;8.13;7.07;;;;;;;15.89;nan;98973.63;5051198;28;20571;-78
2023/06/09 00:58:51;;;;;;;7.73;7.13;;;;;;;15.85;nan;98976.06;5052371;28;20198;-78
2023/06/09 01:01:18;;;;;;;7.63;6.97;;;;;;;15.78;nan;98975.50;5057685;28;20189;-79
2023/06/09 01:03:46;;;;;;;7.17;6.50;;;;;;;15.73;nan;98967.41;5066350;28;20221;-78
2023/06/09 01:06:30;;;;;;;8.00;7.30;;;;;;;15.71;nan;98964.16;5068486;28;20201;-79
2023/06/09 01:09:00;;;;;;;7.60;6.83;;;;;;;15.66;nan;98971.44;5037927;28;20722;-79
2023/06/09 01:11:33;;;;;;;7.27;6.70;;;;;;;15.58;nan;98959.28;5062652;28;20679;-79
2023/06/09 01:14:13;;;;;;;7.23;6.73;;;;;;;15.51;nan;98966.03;5056491;28;20208;-79
2023/06/09 01:16:53;;;;;;;7.43;6.80;;;;;;;15.49;nan;98955.44;5064512;28;20203;-80
2023/06/09 01:19:31;;;;;;;7.40;6.90;;;;;;;15.48;nan;98966.53;5066813;28;20201;-79
2023/06/09 01:22:44;;;;;;;7.50;6.70;;;;;;;15.44;nan;98960.88;5052169;28;20189;-80
2023/06/09 01:25:34;;;;;;;7.67;7.07;;;;;;;15.41;nan;98946.00;5062247;28;20205;-80
2023/06/09 01:28:05;;;;;;;7.77;7.17;;;;;;;15.38;nan;98954.63;5055769;28;20247;-80
2023/06/09 01:30:34;;;;;;;7.57;6.87;;;;;;;15.44;nan;98952.75;5057886;28;20213;-80
2023/06/09 01:33:05;;;;;;;8.10;7.50;;;;;;;15.41;nan;98943.28;5060192;28;20232;-80
2023/06/09 01:35:33;;;;;;;7.90;7.23;;;;;;;15.40;nan;98941.66;5058690;28;20292;-80
2023/06/09 01:38:00;;;;;;;8.80;8.10;;;;;;;15.40;nan;98940.84;5046303;28;20197;-80
2023/06/09 01:40:28;;;;;;;8.13;7.53;;;;;;;15.46;nan;98939.78;5038908;28;20189;-80
2023/06/09 01:42:58;;;;;;;8.77;7.97;;;;;;;15.39;nan;98940.06;5063650;28;20200;-82
2023/06/09 01:45:25;;;;;;;8.43;7.83;;;;;;;15.33;nan;98946.53;5053654;28;20196;-82
2023/06/09 01:47:52;;;;;;;8.57;7.77;;;;;;;15.29;nan;98944.63;5066132;28;20712;-81
2023/06/09 01:50:27;;;;;;;8.17;7.47;;;;;;;15.31;nan;98945.97;5044763;28;20224;-81
2023/06/09 01:53:00;;;;;;;8.10;7.50;;;;;;;15.31;nan;98953.25;5050660;28;20201;-80
2023/06/09 01:55:35;;;;;;;7.87;7.10;;;;;;;15.29;nan;98950.03;5052193;28;20208;-80
2023/06/09 01:58:14;;;;;;;8.40;7.80;;;;;;;15.32;nan;98949.47;5026477;28;20209;-80
2023/06/09 02:00:42;;;;;;;8.30;7.67;;;;;;;15.29;nan;98958.13;5040306;28;20205;-80
2023/06/09 02:03:10;;;;;;;7.80;7.20;;;;;;;15.24;nan;98956.22;5043463;28;20200;-80
2023/06/09 02:05:38;;;;;;;8.50;7.70;;;;;;;15.27;nan;98961.06;5060979;28;20190;-79
2023/06/09 02:08:05;;;;;;;8.33;7.73;;;;;;;15.33;nan;98956.50;5064372;28;20531;-81
2023/06/09 02:10:32;;;;;;;8.13;7.53;;;;;;;15.36;nan;98966.75;5063636;28;20224;-81
2023/06/09 02:13:17;;;;;;;7.93;7.23;;;;;;;15.40;nan;98970.53;5051910;28;20228;-81
2023/06/09 02:15:46;;;;;;;8.90;7.73;;;;;;;15.41;nan;98970.28;5057630;28;20293;-80
2023/06/09 02:18:15;;;;;;;8.37;7.67;;;;;;;15.39;nan;98968.94;5067346;28;20212;-81
2023/06/09 02:20:45;;;;;;;8.50;7.70;;;;;;;15.44;nan;98974.34;5049634;28;20251;-81
2023/06/09 02:23:12;;;;;;;8.33;7.73;;;;;;;15.41;nan;98970.28;5057107;28;20194;-81
2023/06/09 02:25:38;;;;;;;8.33;7.53;;;;;;;15.41;nan;98975.69;5071824;28;20200;-81
2023/06/09 02:28:06;;;;;;;8.57;7.87;;;;;;;15.49;nan;98982.44;5062174;28;20235;-82
2023/06/09 02:30:33;;;;;;;8.80;8.10;;;;;;;15.44;nan;98972.44;5070511;28;20197;-81
2023/06/09 02:33:01;;;;;;;8.20;7.50;;;;;;;15.46;nan;98968.69;5054320;28;20677;-83
2023/06/09 02:35:29;;;;;;;8.60;7.90;;;;;;;15.46;nan;98974.06;5055322;28;20210;-82
2023/06/09 02:38:00;;;;;;;8.33;7.60;;;;;;;15.43;nan;98972.72;5045777;28;20204;-80
2023/06/09 02:40:29;;;;;;;9.27;8.47;;;;;;;15.41;nan;98973.00;5058983;28;20794;-80
2023/06/09 02:42:56;;;;;;;8.23;7.53;;;;;;;15.39;nan;98979.75;5072788;28;20204;-80
2023/06/09 02:45:23;;;;;;;8.27;7.57;;;;;;;15.40;nan;98982.16;5057620;28;20201;-80
2023/06/09 02:47:50;;;;;;;8.30;7.50;;;;;;;15.41;nan;98978.38;5066065;28;20206;-80
2023/06/09 02:50:18;;;;;;;8.20;7.47;;;;;;;15.45;nan;98984.06;5055057;28;20272;-80
2023/06/09 02:52:48;;;;;;;8.10;7.40;;;;;;;15.46;nan;98985.69;5053859;28;20205;-79
2023/06/09 02:55:18;;;;;;;8.43;7.80;;;;;;;15.48;nan;98983.53;5053853;28;20213;-82
2023/06/09 02:57:48;;;;;;;7.77;7.17;;;;;;;15.48;nan;98977.34;5062473;28;20208;-81
2023/06/09 03:00:16;;;;;;;8.23;7.63;;;;;;;15.52;nan;98984.66;5052278;28;20284;-82
2023/06/09 03:02:46;;;;;;;7.90;7.20;;;;;;;15.53;nan;98991.69;5052850;28;20208;-82
2023/06/09 03:05:14;;;;;;;8.33;7.53;;;;;;;15.54;nan;98985.19;5058789;28;20644;-82
2023/06/09 03:07:41;;;;;;;8.03;7.33;;;;;;;15.57;nan;98995.47;5052595;28;20547;-82
2023/06/09 03:10:08;;;;;;;8.47;7.40;;;;;;;15.56;nan;98988.44;5061854;28;20709;-82
2023/06/09 03:12:39;;;;;;;8.57;7.80;;;;;;;15.59;nan;98987.09;5053565;28;20207;-82
2023/06/09 03:15:07;;;;;;;8.13;7.53;;;;;;;15.61;nan;98995.75;5040650;28;20671;-82
2023/06/09 03:17:35;;;;;;;8.17;7.47;;;;;;;15.61;nan;98999.25;5057222;28;20281;-82
2023/06/09 03:20:05;;;;;;;8.00;7.30;;;;;;;15.63;nan;99007.88;5053553;28;20324;-82
2023/06/09 03:22:32;;;;;;;7.90;7.30;;;;;;;15.66;nan;98998.44;5054711;28;20661;-82
2023/06/09 03:24:59;;;;;;;8.33;7.57;;;;;;;15.70;nan;98999.53;5053670;28;20185;-82
2023/06/09 03:27:26;;;;;;;7.87;7.17;;;;;;;15.73;nan;98994.41;5060741;28;20190;-82
2023/06/09 03:29:52;;;;;;;8.00;7.30;;;;;;;15.74;nan;99003.31;5055265;28;20193;-82
2023/06/09 03:32:20;;;;;;;8.00;7.20;;;;;;;15.69;nan;98996.03;5058646;28;20313;-82
2023/06/09 03:34:48;;;;;;;7.90;7.20;;;;;;;15.71;nan;99001.16;5068013;28;20194;-82
2023/06/09 03:37:15;;;;;;;7.67;6.97;;;;;;;15.71;nan;99004.69;5058632;28;20710;-82
2023/06/09 03:39:41;;;;;;;8.30;7.60;;;;;;;15.73;nan;99010.59;5048265;28;20188;-82
2023/06/09 03:42:10;;;;;;;7.97;7.17;;;;;;;15.75;nan;99013.88;5037135;28;20231;-82
2023/06/09 03:44:37;;;;;;;7.63;7.03;;;;;;;15.78;nan;99018.72;5052798;28;20248;-82
2023/06/09 03:47:04;;;;;;;7.97;7.27;;;;;;;15.82;nan;99027.09;5055448;28;20212;-82
2023/06/09 03:49:31;;;;;;;8.13;7.33;;;;;;;15.80;nan;99023.84;5041337;28;20206;-82
2023/06/09 03:51:58;;;;;;;8.17;7.37;;;;;;;15.84;nan;99019.53;5061627;28;20197;-82
2023/06/09 03:54:26;;;;;;;7.00;6.40;;;;;;;15.85;nan;99023.88;5066644;28;20202;-82
2023/06/09 03:56:54;;;;;;;7.70;7.00;;;;;;;15.85;nan;99013.88;5063737;28;20712;-81
2023/06/09 03:59:21;;;;;;;7.23;6.67;;;;;;;15.89;nan;99014.16;5064458;28;20217;-82
2023/06/09 04:01:48;;;;;;;7.30;6.70;;;;;;;15.94;nan;99011.44;5056050;28;20236;-83
2023/06/09 04:04:16;;;;;;;7.63;6.93;;;;;;;15.96;nan;99022.78;5059140;28;20194;-82
2023/06/09 04:06:45;;;;;;;7.10;6.50;;;;;;;16.03;nan;99019.81;5052303;28;20206;-83
2023/06/09 04:09:14;;;;;;;7.50;6.90;;;;;;;16.09;nan;99026.88;5061815;28;20225;-83
2023/06/09 04:11:41;;;;;;;7.70;7.00;;;;;;;16.14;nan;99026.88;5047807;28;20201;-82
2023/06/09 04:14:08;;;;;;;7.30;6.60;;;;;;;16.22;nan;99023.63;5061108;28;20280;-82
2023/06/09 04:16:36;;;;;;;6.70;6.10;;;;;;;16.30;nan;99013.06;5045923;28;20703;-82
2023/06/09 04:19:03;;;;;;;7.40;6.80;;;;;;;16.40;nan;99012.25;5053975;28;20624;-81
2023/06/09 04:21:32;;;;;;;7.83;7.20;;;;;;;16.48;nan;99008.16;5065131;28;20187;-80
2023/06/09 04:23:59;;;;;;;7.67;6.87;;;;;;;16.60;nan;99006.03;5051946;28;20192;-81
2023/06/09 04:26:27;;;;;;;7.90;7.07;;;;;;;16.72;nan;99014.66;5052203;28;20191;-80
2023/06/09 04:28:54;;;;;;;6.83;6.17;;;;;;;16.88;nan;99010.84;5052231;28;20288;-81
2023/06/09 04:31:23;;;;;;;7.23;6.67;;;;;;;17.05;nan;99003.19;5038395;28;20196;-80
2023/06/09 04:33:51;;;;;;;7.30;6.70;;;;;;;17.18;nan;99007.19;5042630;28;20208;-81
2023/06/09 04:36:20;;;;;;;7.13;6.57;;;;;;;17.36;nan;99005.75;5064905;28;20673;-80
2023/06/09 04:38:48;;;;;;;7.73;6.70;;;;;;;17.50;nan;99004.03;5062437;28;20672;-80
2023/06/09 04:41:17;;;;;;;7.33;6.73;;;;;;;17.61;nan;99002.94;5035816;28;20737;-81
2023/06/09 04:43:44;;;;;;;7.00;6.40;;;;;;;17.72;nan;99007.22;5052816;28;20195;-80
2023/06/09 04:46:12;;;;;;;7.30;6.70;;;;;;;17.66;nan;99005.63;5045072;28;20195;-81
2023/06/09 04:48:41;;;;;;;8.03;7.00;;;;;;;17.72;nan;99009.91;5025864;28;20358;-81
2023/06/09 04:51:10;;;;;;;7.50;6.80;;;;;;;17.81;nan;99024.50;5059966;28;20250;-80
2023/06/09 04:53:47;;;;;;;7.50;6.80;;;;;;;17.93;nan;99018.72;5044595;28;20681;-83
2023/06/09 04:56:16;;;;;;;7.90;7.23;;;;;;;18.04;nan;99020.25;5062928;28;20223;-81
2023/06/09 04:58:44;;;;;;;6.90;6.20;;;;;;;18.15;nan;99019.06;5043151;28;20603;-81
2023/06/09 05:01:13;;;;;;;7.23;6.60;;;;;;;18.19;nan;99019.34;5051178;28;20254;-82
2023/06/09 05:03:45;;;;;;;7.23;6.57;;;;;;;18.28;nan;99018.44;5051284;28;20203;-81
2023/06/09 05:06:13;;;;;;;7.17;6.57;;;;;;;18.39;nan;99027.28;5051332;28;20209;-81
2023/06/09 05:08:40;;;;;;;6.97;6.43;;;;;;;18.48;nan;99020.94;5047091;28;20240;-80
2023/06/09 05:11:07;;;;;;;6.90;6.20;;;;;;;18.62;nan;99028.44;5050561;28;20305;-81
2023/06/09 05:13:34;;;;;;;6.93;6.23;;;;;;;18.73;nan;99021.84;5050256;28;20223;-81
2023/06/09 05:16:01;;;;;;;7.03;6.33;;;;;;;18.82;nan;99023.63;5068852;28;20757;-81
2023/06/09 05:18:29;;;;;;;6.87;6.30;;;;;;;18.97;nan;99024.56;5068999;28;20253;-81
2023/06/09 05:20:56;;;;;;;6.87;6.30;;;;;;;19.05;nan;99021.22;5051710;28;20555;-81
2023/06/09 05:23:23;;;;;;;6.67;6.07;;;;;;;19.13;nan;99020.59;5058529;28;20202;-81
2023/06/09 05:25:50;;;;;;;6.37;5.97;;;;;;;19.28;nan;99031.25;5058376;28;20205;-81
2023/06/09 05:28:17;;;;;;;6.50;5.90;;;;;;;19.39;nan;99032.75;5037590;28;20208;-80
2023/06/09 05:30:44;;;;;;;6.30;5.80;;;;;;;19.50;nan;99037.00;5055381;28;20198;-80
2023/06/09 05:33:11;;;;;;;6.97;6.40;;;;;;;19.56;nan;99022.22;5058144;28;20207;-81
2023/06/09 05:35:38;;;;;;;6.33;5.83;;;;;;;19.67;nan;99025.59;5050001;28;20200;-81
2023/06/09 05:38:07;;;;;;;6.70;6.20;;;;;;;19.78;nan;99019.72;5049906;28;20206;-81
2023/06/09 05:40:34;;;;;;;6.67;6.07;;;;;;;19.86;nan;99025.59;5051238;28;20188;-81
2023/06/09 05:43:01;;;;;;;6.47;5.87;;;;;;;19.89;nan;99020.38;5051141;28;20674;-81
2023/06/09 05:45:28;;;;;;;7.10;6.43;;;;;;;19.98;nan;99029.47;5056483;28;20189;-80
2023/06/09 05:47:54;;;;;;;6.10;5.60;;;;;;;20.09;nan;99032.84;5049029;28;20938;-81
2023/06/09 05:50:22;;;;;;;6.77;6.17;;;;;;;20.11;nan;99033.38;5048155;28;20221;-80
2023/06/09 05:52:48;;;;;;;6.60;6.00;;;;;;;20.25;nan;99038.88;5055898;28;20708;-81
2023/06/09 05:55:19;;;;;;;6.73;6.13;;;;;;;20.25;nan;99038.88;5044242;28;20221;-81
2023/06/09 05:57:46;;;;;;;8.23;6.80;;;;;;;20.22;nan;99034.81;5046308;28;20221;-81
2023/06/09 06:00:13;;;;;;;7.37;6.80;;;;;;;20.09;nan;99046.47;5047836;28;20200;-81
2023/06/09 06:02:40;;;;;;;7.47;6.87;;;;;;;19.72;nan;99048.09;5049464;28;20193;-81
2023/06/09 06:05:07;;;;;;;7.63;7.03;;;;;;;19.70;nan;99046.75;5052475;28;20174;-80
2023/06/09 06:07:38;;;;;;;6.97;6.37;;;;;;;19.66;nan;99054.69;5057253;28;20183;-81
2023/06/09 06:10:06;;;;;;;7.60;7.00;;;;;;;19.52;nan;99053.78;5012627;28;1220287;-81
2023/06/09 06:12:33;;;;;;;7.50;6.80;;;;;;;19.61;nan;99049.31;5051479;28;20191;-81
2023/06/09 06:14:59;;;;;;;7.23;6.53;;;;;;;19.79;nan;99048.50;5050385;28;20189;-82
2023/06/09 06:17:26;;;;;;;7.90;7.10;;;;;;;19.95;nan;99049.13;5048508;28;20556;-81
2023/06/09 06:19:53;;;;;;;6.87;6.27;;;;;;;20.07;nan;99043.22;5038549;28;20189;-81
2023/06/09 06:22:20;;;;;;;7.30;6.70;;;;;;;20.12;nan;99048.56;5060819;28;20190;-81
2023/06/09 06:24:47;;;;;;;7.03;6.37;;;;;;;20.11;nan;99053.19;5066841;28;20241;-82
2023/06/09 06:27:13;;;;;;;7.07;6.47;;;;;;;20.13;nan;99056.44;5051846;28;20201;-81
2023/06/09 06:29:40;;;;;;;6.93;6.27;;;;;;;20.07;nan;99063.06;5050595;28;20200;-81
2023/06/09 06:32:08;;;;;;;6.80;6.30;;;;;;;20.12;nan;99062.97;5062338;28;20251;-81
2023/06/09 06:34:34;;;;;;;7.53;6.93;;;;;;;20.09;nan;99068.22;5062280;28;20265;-81
2023/06/09 06:37:01;;;;;;;7.53;6.93;;;;;;;20.34;nan;99061.59;5062222;28;20213;-81
2023/06/09 06:39:28;;;;;;;8.00;7.37;;;;;;;20.16;nan;99064.00;5060048;28;20669;-81
2023/06/09 06:41:55;;;;;;;7.10;6.60;;;;;;;20.05;nan;99069.91;5057393;28;20229;-81
2023/06/09 06:44:27;;;;;;;7.27;6.67;;;;;;;20.08;nan;99063.88;5063562;28;20212;-82
2023/06/09 06:46:53;;;;;;;7.00;6.40;;;;;;;20.13;nan;99071.94;5058874;28;20199;-82
2023/06/09 06:49:20;;;;;;;6.97;6.27;;;;;;;20.18;nan;99075.41;5068602;28;20260;-81
2023/06/09 06:51:47;;;;;;;7.50;6.80;;;;;;;20.27;nan;99059.22;5066449;28;20195;-81
2023/06/09 06:54:15;;;;;;;6.60;6.03;;;;;;;20.21;nan;99068.56;5051990;28;20670;-81
2023/06/09 06:56:42;;;;;;;6.63;6.13;;;;;;;20.51;nan;99059.94;5063754;28;20207;-80
2023/06/09 06:59:09;;;;;;;6.50;6.00;;;;;;;20.20;nan;99066.97;5049438;28;20208;-80
2023/06/09 07:01:38;;;;;;;7.30;6.57;;;;;;;20.18;nan;99067.25;5048150;28;20204;-81
2023/06/09 07:04:05;;;;;;;6.60;6.10;;;;;;;20.33;nan;99070.88;5066841;28;20197;-80
2023/06/09 07:06:32;;;;;;;6.43;5.83;;;;;;;20.20;nan;99056.09;5065124;28;20185;-81
2023/06/09 07:08:59;;;;;;;6.70;5.90;;;;;;;20.46;nan;99064.66;5064010;28;20265;-82
2023/06/09 07:11:31;;;;;;;6.00;5.60;;;;;;;20.43;nan;99060.63;5067845;28;20191;-82
2023/06/09 07:13:58;;;;;;;6.40;5.80;;;;;;;21.00;nan;99063.94;5056974;28;20191;-82
2023/06/09 07:16:25;;;;;;;5.43;5.03;;;;;;;21.35;nan;99062.50;5054227;28;20208;-83
2023/06/09 07:18:52;;;;;;;5.20;4.80;;;;;;;21.81;nan;99054.94;5055290;28;20195;-82
2023/06/09 07:21:19;;;;;;;5.30;4.80;;;;;;;21.85;nan;99055.94;5035667;28;20186;-82
2023/06/09 07:23:46;;;;;;;5.40;4.90;;;;;;;22.48;nan;99060.50;5037337;28;20194;-81
2023/06/09 07:26:12;;;;;;;5.90;4.90;;;;;;;22.79;nan;99058.63;5069804;28;20659;-79
2023/06/09 07:28:39;;;;;;;5.25;4.72;;;;;;;22.82;nan;99051.69;5055545;28;20193;-79
2023/06/09 07:31:06;;;;;;;4.90;4.60;;;;;;;23.06;nan;99062.25;5061689;28;20200;-80
2023/06/09 07:33:33;;;;;;;4.85;4.45;;;;;;;23.23;nan;99071.34;5048292;28;20216;-79
2023/06/09 07:36:01;;;;;;;4.88;4.47;;;;;;;23.87;nan;99071.69;5041109;28;20211;-79
2023/06/09 07:38:28;;;;;;;4.85;4.45;;;;;;;23.97;nan;99062.38;5050262;28;20226;-78
2023/06/09 07:40:55;;;;;;;4.70;4.30;;;;;;;24.31;nan;99064.34;5070598;28;20197;-80
2023/06/09 07:43:22;;;;;;;5.07;4.68;;;;;;;24.44;nan;99060.63;5056048;28;20237;-78
2023/06/09 07:45:49;;;;;;;4.38;4.07;;;;;;;24.46;nan;99061.06;5050163;28;20253;-78
2023/06/09 07:48:16;;;;;;;4.80;4.40;;;;;;;24.55;nan;99065.41;5050441;28;20252;-79
2023/06/09 07:50:43;;;;;;;5.05;4.65;;;;;;;24.35;nan;99059.81;5041971;28;20217;-78
2023/06/09 07:53:26;;;;;;;5.40;5.00;;;;;;;24.77;nan;99058.94;5045818;28;20190;-78
2023/06/09 07:55:53;;;;;;;4.68;4.38;;;;;;;24.99;nan;99057.91;5054012;28;20269;-79
2023/06/09 07:58:20;;;;;;;5.28;4.78;;;;;;;25.43;nan;99054.63;5035110;28;20239;-80
2023/06/09 08:00:47;;;;;;;5.55;4.72;;;;;;;25.65;nan;99050.03;5045062;28;20249;-78
2023/06/09 08:03:14;;;;;;;4.53;4.22;;;;;;;26.02;nan;99051.06;5043683;28;20659;-79
2023/06/09 08:05:42;;;;;;;4.90;4.30;;;;;;;26.43;nan;99051.03;5053646;28;20191;-79
2023/06/09 08:08:09;;;;;;;5.03;4.63;;;;;;;26.33;nan;99043.22;5054620;28;20192;-80
2023/06/09 08:10:35;;;;;;;4.90;4.50;;;;;;;26.03;nan;99048.00;5047736;28;20279;-80
2023/06/09 08:13:02;;;;;;;4.82;4.43;;;;;;;25.32;nan;99042.47;5049735;28;20195;-81
2023/06/09 08:15:29;;;;;;;5.32;4.93;;;;;;;24.49;nan;99041.28;5052945;28;20188;-82
2023/06/09 08:17:56;;;;;;;5.35;4.85;;;;;;;24.65;nan;99041.53;5061773;28;20210;-81
2023/06/09 08:20:23;;;;;;;5.30;4.90;;;;;;;25.71;nan;99037.75;5052954;28;20192;-81
2023/06/09 08:22:50;;;;;;;5.18;4.78;;;;;;;25.55;nan;99043.00;5064810;28;20197;-80
2023/06/09 08:25:16;;;;;;;5.60;5.10;;;;;;;25.66;nan;99049.69;5050642;28;20190;-81
2023/06/09 08:27:43;;;;;;;5.18;4.78;;;;;;;26.16;nan;99049.66;5039973;28;21013;-78
2023/06/09 08:30:10;;;;;;;5.10;4.70;;;;;;;25.99;nan;99047.03;5033361;28;20186;-79
2023/06/09 08:32:39;;;;;;;5.47;4.72;;;;;;;25.69;nan;99045.50;5047188;28;20606;-79
2023/06/09 08:35:07;;;;;;;5.40;4.90;;;;;;;25.99;nan;99040.75;5047287;28;20188;-79
2023/06/09 08:37:36;;;;;;;5.65;5.18;;;;;;;26.06;nan;99054.75;5054163;28;20684;-79
2023/06/09 08:40:07;;;;;;;5.30;4.90;;;;;;;26.40;nan;99048.97;5063076;28;20193;-82
2023/06/09 08:42:36;;;;;;;5.57;5.15;;;;;;;26.38;nan;99051.25;5054955;28;20192;-79
2023/06/09 08:45:05;;;;;;;5.35;4.88;;;;;;;26.00;nan;99045.91;5060470;28;20189;-79
2023/06/09 08:47:36;;;;;;;5.32;4.82;;;;;;;25.37;nan;99050.50;5061052;28;20190;-82
2023/06/09 08:50:04;;;;;;;5.30;4.88;;;;;;;25.40;nan;99049.00;5063330;28;20223;-81
2023/06/09 08:52:32;;;;;;;5.13;4.75;;;;;;;24.74;nan;99050.53;5062083;28;20280;-81
2023/06/09 08:54:59;;;;;;;5.30;4.90;;;;;;;25.01;nan;99060.34;5046284;28;20185;-80
2023/06/09 08:57:26;;;;;;;5.70;5.20;;;;;;;24.93;nan;99056.47;5052900;28;20211;-81
2023/06/09 08:59:53;;;;;;;8.18;5.90;;;;;;;25.74;nan;99050.78;5052737;28;20197;-81
2023/06/09 09:02:20;;;;;;;6.75;6.10;;;;;;;26.02;nan;99046.38;5049952;28;20196;-81
2023/06/09 09:04:47;;;;;;;7.25;5.60;;;;;;;26.19;nan;99050.91;5056838;28;20563;-80
2023/06/09 09:07:14;;;;;;;6.43;5.55;;;;;;;26.20;nan;99053.31;5052101;28;20194;-81
2023/06/09 09:09:41;;;;;;;5.97;5.38;;;;;;;25.55;nan;99047.69;5051954;28;20240;-81
2023/06/09 09:12:14;;;;;;;5.53;5.03;;;;;;;25.72;nan;99040.13;5053639;28;20208;-80
2023/06/09 09:14:44;;;;;;;5.60;5.20;;;;;;;26.15;nan;99052.72;5054903;28;20185;-80
2023/06/09 09:17:12;;;;;;;6.85;5.32;;;;;;;26.81;nan;99048.06;5052315;28;20217;-82
2023/06/09 09:19:43;;;;;;;5.60;5.10;;;;;;;25.59;nan;99051.34;5051774;28;20198;-80
2023/06/09 09:22:10;;;;;;;6.00;5.50;;;;;;;26.04;nan;99051.50;5054561;28;20636;-80
2023/06/09 09:24:41;;;;;;;5.90;5.40;;;;;;;25.00;nan;99048.56;5045849;28;20189;-80
2023/06/09 09:27:18;;;;;;;6.05;5.55;;;;;;;25.12;nan;99039.66;5028919;28;20609;-81
2023/06/09 09:29:46;;;;;;;6.18;5.57;;;;;;;25.73;nan;99057.41;5048711;28;20684;-82
2023/06/09 09:32:13;;;;;;;6.18;5.57;;;;;;;25.42;nan;99052.25;5051706;28;20196;-80
2023/06/09 09:34:41;;;;;;;6.70;6.00;;;;;;;24.84;nan;99052.94;5055457;28;20184;-80
2023/06/09 09:37:15;;;;;;;7.43;5.60;;;;;;;24.55;nan;99050.91;5054129;28;20664;-80
2023/06/09 09:39:52;;;;;;;5.78;5.28;;;;;;;24.96;nan;99050.38;5047387;28;20186;-81
2023/06/09 09:42:20;;;;;;;5.53;5.05;;;;;;;24.12;nan;99042.75;5043714;28;20193;-81
2023/06/09 09:44:50;;;;;;;5.60;5.20;;;;;;;24.23;nan;99054.16;5043062;28;20193;-81
2023/06/09 09:47:19;;;;;;;5.50;5.10;;;;;;;23.92;nan;99044.19;5052575;28;20224;-81
2023/06/09 09:49:50;;;;;;;5.80;5.40;;;;;;;22.87;nan;99051.56;5050329;28;20706;-80
2023/06/09 09:52:32;;;;;;;5.57;5.07;;;;;;;23.84;nan;99049.66;5047693;28;20199;-81
2023/06/09 09:55:00;;;;;;;5.28;4.88;;;;;;;24.83;nan;99043.09;5042786;28;20190;-81
2023/06/09 09:57:29;;;;;;;5.13;4.72;;;;;;;24.16;nan;99037.41;5033667;28;20634;-81
2023/06/09 09:59:59;;;;;;;5.65;5.15;;;;;;;24.15;nan;99036.63;5044078;28;20208;-81
2023/06/09 10:02:30;;;;;;;5.60;5.10;;;;;;;24.13;nan;99038.84;5051367;28;20187;-81
2023/06/09 10:05:03;;;;;;;5.85;5.22;;;;;;;24.40;nan;99033.06;5051276;28;20190;-80
2023/06/09 10:07:33;;;;;;;6.35;5.75;;;;;;;24.87;nan;99028.44;5042276;28;20185;-83
2023/06/09 10:10:00;;;;;;;5.30;4.80;;;;;;;25.76;nan;99026.53;5044860;28;20224;-80
2023/06/09 10:12:27;;;;;;;5.95;5.43;;;;;;;26.08;nan;99033.25;5048381;28;20609;-81
2023/06/09 10:14:54;;;;;;;5.50;5.05;;;;;;;25.64;nan;99024.53;5055363;28;20189;-80
2023/06/09 10:17:21;;;;;;;6.00;5.47;;;;;;;26.04;nan;99029.56;5053987;28;20658;-81
2023/06/09 10:19:52;;;;;;;5.70;5.30;;;;;;;25.84;nan;99031.19;5043026;28;20182;-80
2023/06/09 10:22:19;;;;;;;5.82;5.25;;;;;;;26.24;nan;99029.56;5051902;28;20204;-80
2023/06/09 10:24:46;;;;;;;6.32;5.70;;;;;;;25.98;nan;99025.44;5052014;28;20189;-80
2023/06/09 10:27:14;;;;;;;6.30;5.70;;;;;;;24.85;nan;99025.22;5053808;28;20193;-81
2023/06/09 10:29:41;;;;;;;6.38;5.90;;;;;;;25.41;nan;99029.50;5051114;28;20209;-81
2023/06/09 10:32:11;;;;;;;6.30;5.80;;;;;;;25.70;nan;99027.91;5045713;28;20193;-80
2023/06/09 10:34:39;;;;;;;5.93;5.53;;;;;;;25.90;nan;99012.59;5046174;28;20190;-81
2023/06/09 10:37:06;;;;;;;7.22;6.10;;;;;;;26.36;nan;99014.28;5049515;28;20190;-81
2023/06/09 10:39:56;;;;;;;7.03;6.30;;;;;;;26.66;nan;99011.03;5051665;28;20188;-81
2023/06/09 10:42:35;;;;;;;7.50;6.80;;;;;;;25.64;nan;99004.53;5055646;28;20193;-81
2023/06/09 10:45:17;;;;;;;7.80;7.13;;;;;;;25.70;nan;98990.31;5050369;28;20208;-80
2023/06/09 10:47:45;;;;;;;7.15;6.55;;;;;;;25.94;nan;98992.38;5050765;28;20281;-82
2023/06/09 10:50:30;;;;;;;7.55;6.93;;;;;;;26.05;nan;98990.78;5046389;28;20210;-81
2023/06/09 10:52:58;;;;;;;6.85;6.18;;;;;;;26.72;nan;98995.97;5045539;28;20282;-81
2023/06/09 10:55:27;;;;;;;6.65;5.95;;;;;;;28.05;nan;98994.22;5052069;28;20187;-80
2023/06/09 10:57:55;;;;;;;7.10;6.50;;;;;;;27.47;nan;98987.38;5047207;28;20201;-79
2023/06/09 11:00:22;;;;;;;6.47;5.90;;;;;;;28.02;nan;98993.00;5055639;28;20190;-80
2023/06/09 11:02:50;;;;;;;6.80;6.07;;;;;;;28.09;nan;98983.34;5050840;28;20186;-80
2023/06/09 11:05:19;;;;;;;6.43;5.90;;;;;;;28.48;nan;98976.97;5046496;28;20186;-79
2023/06/09 11:07:48;;;;;;;6.63;6.13;;;;;;;28.45;nan;98972.16;5048785;28;20644;-80
2023/06/09 11:10:17;;;;;;;6.40;5.80;;;;;;;28.20;nan;98978.94;5051181;28;20221;-80
2023/06/09 11:12:49;;;;;;;6.55;5.75;;;;;;;27.52;nan;98967.94;5048908;28;20185;-79
2023/06/09 11:15:17;;;;;;;6.40;5.90;;;;;;;28.48;nan;98963.19;5047563;28;20175;-80
2023/06/09 11:17:47;;;;;;;6.70;6.10;;;;;;;28.32;nan;98965.91;5050177;28;20571;-79
2023/06/09 11:20:22;;;;;;;6.57;6.07;;;;;;;28.98;nan;98965.25;5045939;28;20179;-79
2023/06/09 11:22:52;;;;;;;6.43;5.93;;;;;;;28.45;nan;98963.91;5049433;28;20190;-80
2023/06/09 11:25:18;;;;;;;6.40;5.85;;;;;;;28.58;nan;98956.34;5049552;28;20644;-79
2023/06/09 11:28:08;;;;;;;6.60;6.13;;;;;;;29.19;nan;98960.25;5049075;28;20221;-80
2023/06/09 11:31:13;;;;;;;6.18;5.68;;;;;;;29.74;nan;98952.81;5047789;28;20269;-79
2023/06/09 11:33:46;;;;;;;6.05;5.55;;;;;;;29.93;nan;98947.34;5049552;28;20192;-83
2023/06/09 11:36:18;;;;;;;5.88;5.38;;;;;;;29.80;nan;98951.38;5048196;28;20178;-81
2023/06/09 11:38:46;;;;;;;6.45;5.95;;;;;;;29.97;nan;98953.72;5050462;28;20210;-82
2023/06/09 11:41:14;;;;;;;6.30;5.70;;;;;;;30.11;nan;98947.69;5046583;28;20174;-82
2023/06/09 11:43:54;;;;;;;6.40;5.90;;;;;;;30.35;nan;98944.59;5049140;28;20243;-82
2023/06/09 11:46:22;;;;;;;5.85;5.35;;;;;;;30.32;nan;98939.81;5049071;28;20648;-82
2023/06/09 11:48:58;;;;;;;6.40;5.90;;;;;;;29.61;nan;98937.56;5049991;28;20185;-82
2023/06/09 11:51:25;;;;;;;6.15;5.75;;;;;;;28.62;nan;98937.94;5046818;28;20214;-81
2023/06/09 11:53:52;;;;;;;5.88;5.47;;;;;;;29.08;nan;98939.91;5050997;28;20648;-80
2023/06/09 11:56:19;;;;;;;6.15;5.65;;;;;;;29.12;nan;98939.97;5048491;28;20181;-80
2023/06/09 11:58:47;;;;;;;6.72;6.22;;;;;;;28.84;nan;98935.38;5047321;28;20206;-80
2023/06/09 12:01:14;;;;;;;6.78;6.28;;;;;;;28.37;nan;98934.53;5046903;28;20193;-81